Time;durP1;ratioP1;P1;durP2;ratioP2;P2;SDS_P1;SDS_P2;PMS_P1;PMS_P2;Temp;Humidity;BMP_temperature;BMP_pressure;BME280_temperature;BME280_humidity;BME280_pressure;Samples;Min_cycle;Max_cycle;Signal;HPM_P1;HPM_P2
2022/05/10 00:01:56;;;;;;;5.60;5.20;;;17.20;61.70;;;;;;5081289;28;20425;-64
2022/05/10 00:04:25;;;;;;;5.30;4.90;;;17.20;61.70;;;;;;5072631;28;21153;-63
2022/05/10 00:06:52;;;;;;;6.43;5.93;;;17.20;62.50;;;;;;5062490;28;20433;-64
2022/05/10 00:09:22;;;;;;;5.90;5.40;;;17.20;62.50;;;;;;5062154;28;20429;-64
2022/05/10 00:11:49;;;;;;;6.10;5.50;;;17.10;62.50;;;;;;5062031;28;20791;-63
2022/05/10 00:14:16;;;;;;;6.38;5.80;;;17.10;62.70;;;;;;5098908;22;20436;-68
2022/05/10 00:16:45;;;;;;;6.20;5.80;;;17.00;62.90;;;;;;5107000;27;20548;-68
2022/05/10 00:19:14;;;;;;;5.85;5.45;;;17.00;62.90;;;;;;5123660;27;20473;-69
2022/05/10 00:21:43;;;;;;;5.93;5.40;;;17.00;62.10;;;;;;5125486;27;20418;-71
2022/05/10 00:24:10;;;;;;;6.60;6.00;;;17.00;62.10;;;;;;5111762;27;20446;-69
2022/05/10 00:26:36;;;;;;;6.10;5.70;;;17.10;62.10;;;;;;5109626;28;20497;-68
2022/05/10 00:29:04;;;;;;;6.07;5.47;;;17.10;62.00;;;;;;5127337;28;20450;-67
2022/05/10 00:31:31;;;;;;;5.88;5.38;;;17.00;61.40;;;;;;5130652;28;20432;-67
2022/05/10 00:33:59;;;;;;;6.03;5.63;;;17.00;61.50;;;;;;5136302;27;20422;-68
2022/05/10 00:36:27;;;;;;;6.20;5.60;;;17.00;61.30;;;;;;5117323;27;20473;-68
2022/05/10 00:38:55;;;;;;;5.88;5.45;;;16.90;61.50;;;;;;5110915;28;20435;-67
2022/05/10 00:41:27;;;;;;;6.30;5.80;;;16.90;61.30;;;;;;5110265;27;20428;-68
2022/05/10 00:43:59;;;;;;;6.00;5.50;;;16.90;62.10;;;;;;5115060;27;20548;-68
2022/05/10 00:46:30;;;;;;;5.95;5.45;;;16.90;61.70;;;;;;5100694;28;20477;-69
2022/05/10 00:49:01;;;;;;;6.32;5.72;;;16.80;61.70;;;;;;5104544;28;20507;-68
2022/05/10 00:51:37;;;;;;;6.20;5.70;;;16.80;61.90;;;;;;5108751;28;20420;-68
2022/05/10 00:54:09;;;;;;;6.00;5.25;;;16.80;61.80;;;;;;5106420;27;20505;-69
2022/05/10 00:56:40;;;;;;;6.00;5.60;;;16.70;61.80;;;;;;5114128;27;20430;-69
2022/05/10 00:59:17;;;;;;;6.20;5.70;;;16.70;62.10;;;;;;5106628;28;20909;-69
2022/05/10 01:01:45;;;;;;;5.53;5.20;;;16.70;62.30;;;;;;5111627;27;20427;-68
2022/05/10 01:04:20;;;;;;;6.35;5.30;;;16.70;62.40;;;;;;5131917;27;20418;-69
2022/05/10 01:06:52;;;;;;;6.37;5.87;;;16.70;62.40;;;;;;5117769;27;20429;-68
2022/05/10 01:09:27;;;;;;;6.20;5.70;;;16.70;62.50;;;;;;5115347;27;20481;-68
2022/05/10 01:12:01;;;;;;;6.25;5.75;;;16.70;62.30;;;;;;5106419;28;20904;-69
2022/05/10 01:14:36;;;;;;;5.90;5.50;;;16.60;62.90;;;;;;5110171;28;20928;-69
2022/05/10 01:17:03;;;;;;;6.50;5.90;;;16.60;62.60;;;;;;5107975;27;20432;-68
2022/05/10 01:19:29;;;;;;;6.40;5.90;;;16.50;62.70;;;;;;5118938;27;20435;-68
2022/05/10 01:22:13;;;;;;;6.57;5.50;;;16.50;62.40;;;;;;5103281;28;20433;-70
2022/05/10 01:24:59;;;;;;;5.72;5.32;;;16.50;62.80;;;;;;5120056;27;20830;-68
2022/05/10 01:27:46;;;;;;;6.47;5.97;;;16.40;62.80;;;;;;5109535;28;20451;-69
2022/05/10 01:30:16;;;;;;;6.30;5.80;;;16.40;63.30;;;;;;5110788;27;20423;-68
2022/05/10 01:35:43;;;;;;;6.35;5.90;;;16.40;63.50;;;;;;5113290;27;20640;-69
2022/05/10 01:38:22;;;;;;;6.65;6.05;;;16.30;63.90;;;;;;5110979;28;20424;-68
2022/05/10 01:40:55;;;;;;;6.10;5.65;;;16.30;64.40;;;;;;5110629;28;20440;-69
2022/05/10 01:43:28;;;;;;;6.70;6.20;;;16.30;64.50;;;;;;5120003;27;20439;-70
2022/05/10 01:46:03;;;;;;;6.68;6.07;;;16.30;64.10;;;;;;5110378;28;20481;-71
2022/05/10 01:48:33;;;;;;;6.75;6.15;;;16.20;64.40;;;;;;5103521;27;20656;-69
2022/05/10 01:51:05;;;;;;;6.50;5.90;;;16.20;64.60;;;;;;5109194;28;20432;-69
2022/05/10 01:53:34;;;;;;;7.00;6.40;;;16.20;64.90;;;;;;5115432;27;20492;-68
2022/05/10 01:56:04;;;;;;;6.82;6.25;;;16.10;65.10;;;;;;5110262;28;20424;-69
2022/05/10 01:58:33;;;;;;;7.05;6.45;;;16.10;64.90;;;;;;5107826;28;21230;-69
2022/05/10 02:01:05;;;;;;;6.50;6.00;;;16.10;65.20;;;;;;5118968;27;20460;-68
2022/05/10 02:03:35;;;;;;;7.10;6.50;;;16.00;65.50;;;;;;5133652;28;20947;-71
2022/05/10 02:06:08;;;;;;;6.68;6.07;;;16.00;65.50;;;;;;5120781;27;20436;-68
2022/05/10 02:08:42;;;;;;;6.60;6.18;;;16.00;65.80;;;;;;5115727;27;20461;-68
2022/05/10 02:11:12;;;;;;;6.97;6.40;;;16.00;66.20;;;;;;5105875;27;20438;-70
2022/05/10 02:13:42;;;;;;;6.80;6.30;;;16.00;65.90;;;;;;5105279;28;20425;-68
2022/05/10 02:16:16;;;;;;;7.13;6.43;;;16.00;66.00;;;;;;5111997;27;20489;-68
2022/05/10 02:18:50;;;;;;;7.13;6.60;;;15.90;66.90;;;;;;5105197;27;20501;-70
2022/05/10 02:21:23;;;;;;;7.35;6.85;;;15.90;68.50;;;;;;5110953;28;20501;-69
2022/05/10 02:23:55;;;;;;;6.85;6.35;;;15.80;67.50;;;;;;5102693;27;20428;-68
2022/05/10 02:26:27;;;;;;;7.25;6.65;;;15.80;67.70;;;;;;5115610;27;20416;-70
2022/05/10 02:29:00;;;;;;;6.80;6.40;;;15.80;67.10;;;;;;5113650;28;20437;-69
2022/05/10 02:33:06;;;;;;;7.40;6.80;;;15.80;66.90;;;;;;5110407;28;20416;-69
2022/05/10 02:34:20;;;;;;;7.30;6.80;;;15.80;66.80;;;;;;5105153;28;20499;-69
2022/05/10 02:36:47;;;;;;;7.13;6.53;;;15.70;66.40;;;;;;5110883;27;20465;-68
2022/05/10 02:39:14;;;;;;;6.90;6.40;;;15.70;66.40;;;;;;5102518;27;20424;-68
2022/05/10 02:41:40;;;;;;;7.15;6.60;;;15.70;66.80;;;;;;5113649;27;20435;-68
2022/05/10 02:44:07;;;;;;;7.30;6.60;;;15.70;66.10;;;;;;5105456;27;20430;-68
2022/05/10 02:46:35;;;;;;;7.07;6.47;;;15.70;66.20;;;;;;5112006;27;20471;-67
2022/05/10 02:49:02;;;;;;;7.55;6.85;;;15.70;66.40;;;;;;5130075;27;20411;-68
2022/05/10 02:51:29;;;;;;;7.10;6.60;;;15.70;65.70;;;;;;5106804;28;20420;-68
2022/05/10 02:53:55;;;;;;;7.47;6.93;;;15.70;65.70;;;;;;5110242;28;20408;-68
2022/05/10 02:56:25;;;;;;;7.90;7.10;;;15.70;66.20;;;;;;5109274;28;20431;-70
2022/05/10 02:58:56;;;;;;;6.70;6.20;;;15.60;66.10;;;;;;5109983;27;20416;-68
2022/05/10 03:01:31;;;;;;;8.88;7.32;;;15.60;65.60;;;;;;5110664;28;20416;-68
2022/05/10 03:03:59;;;;;;;6.95;6.45;;;15.60;65.90;;;;;;5109529;28;20430;-68
2022/05/10 03:06:28;;;;;;;7.32;6.72;;;15.60;66.20;;;;;;5111062;27;20408;-69
2022/05/10 03:08:55;;;;;;;6.90;6.40;;;15.60;66.00;;;;;;5111862;27;20436;-69
2022/05/10 03:11:22;;;;;;;7.63;7.03;;;15.50;66.70;;;;;;5110204;28;20420;-67
2022/05/10 03:13:50;;;;;;;7.50;6.90;;;15.50;66.00;;;;;;5108657;28;20440;-69
2022/05/10 03:16:17;;;;;;;8.38;7.68;;;15.50;66.60;;;;;;5109688;27;20917;-68
2022/05/10 03:18:44;;;;;;;7.90;7.30;;;15.50;66.40;;;;;;5106125;28;20432;-68
2022/05/10 03:21:13;;;;;;;8.25;7.45;;;15.50;67.00;;;;;;5115112;27;20471;-70
2022/05/10 03:23:39;;;;;;;7.50;7.00;;;15.50;67.50;;;;;;5122461;27;20435;-69
2022/05/10 03:26:07;;;;;;;8.27;7.57;;;15.50;68.10;;;;;;5127541;27;20430;-69
2022/05/10 03:28:33;;;;;;;8.65;8.05;;;15.50;69.50;;;;;;5120421;27;20481;-69
2022/05/10 03:31:00;;;;;;;8.05;7.45;;;15.50;68.40;;;;;;5114678;27;20432;-68
2022/05/10 03:33:27;;;;;;;7.90;7.40;;;15.50;69.40;;;;;;5109389;27;20428;-69
2022/05/10 03:35:54;;;;;;;8.13;7.63;;;15.40;68.50;;;;;;5115576;27;20430;-68
2022/05/10 03:38:22;;;;;;;8.50;7.85;;;15.40;68.90;;;;;;5115308;27;20428;-68
2022/05/10 03:40:48;;;;;;;8.48;7.78;;;15.40;68.80;;;;;;5115454;27;20426;-68
2022/05/10 03:43:15;;;;;;;8.60;8.00;;;15.40;69.40;;;;;;5110596;27;20455;-69
2022/05/10 03:45:41;;;;;;;9.00;8.40;;;15.40;68.60;;;;;;5108637;28;20404;-69
2022/05/10 03:48:09;;;;;;;8.70;8.00;;;15.30;68.50;;;;;;5115666;27;20933;-67
2022/05/10 03:50:35;;;;;;;8.50;7.90;;;15.40;68.60;;;;;;5108331;28;20797;-69
2022/05/10 03:53:02;;;;;;;9.30;8.50;;;15.30;69.00;;;;;;5112177;27;20514;-71
2022/05/10 03:55:31;;;;;;;9.15;8.45;;;15.30;69.30;;;;;;5124918;27;20450;-70
2022/05/10 03:57:57;;;;;;;8.77;8.18;;;15.20;69.40;;;;;;5116919;27;20811;-69
2022/05/10 04:00:27;;;;;;;8.93;8.23;;;15.20;69.80;;;;;;5129826;28;20404;-67
2022/05/10 04:02:55;;;;;;;9.10;8.50;;;15.20;70.10;;;;;;5121830;27;20424;-68
2022/05/10 04:05:23;;;;;;;9.23;8.43;;;15.20;70.20;;;;;;5113501;27;20462;-69
2022/05/10 04:07:50;;;;;;;9.55;8.75;;;15.20;70.40;;;;;;5111267;28;20485;-69
2022/05/10 04:10:18;;;;;;;9.10;8.30;;;15.20;69.90;;;;;;5117760;27;20488;-69
2022/05/10 04:12:47;;;;;;;9.13;8.50;;;15.20;70.40;;;;;;5109764;27;20454;-69
2022/05/10 04:15:16;;;;;;;8.65;7.85;;;15.20;70.20;;;;;;5108817;28;20420;-69
2022/05/10 04:17:43;;;;;;;8.70;8.10;;;15.20;70.20;;;;;;5115753;27;20487;-68
2022/05/10 04:20:12;;;;;;;9.20;8.50;;;15.30;69.80;;;;;;5104407;27;20428;-69
2022/05/10 04:22:39;;;;;;;8.60;8.00;;;15.30;70.10;;;;;;5115422;27;20420;-71
2022/05/10 04:25:07;;;;;;;8.57;7.93;;;15.30;69.90;;;;;;5099147;27;20440;-71
2022/05/10 04:27:35;;;;;;;8.52;7.93;;;15.30;69.60;;;;;;5108552;28;20484;-68
2022/05/10 04:30:04;;;;;;;8.43;7.90;;;15.30;69.20;;;;;;5106137;28;20500;-68
2022/05/10 04:32:31;;;;;;;8.60;7.90;;;15.30;69.30;;;;;;5111742;28;20414;-69
2022/05/10 04:34:57;;;;;;;8.68;7.90;;;15.30;68.90;;;;;;5102732;28;20426;-69
2022/05/10 04:37:24;;;;;;;7.65;7.05;;;15.30;68.80;;;;;;5102212;28;20412;-69
2022/05/10 04:42:35;;;;;;;8.80;8.10;;;15.30;68.90;;;;;;5108818;28;20928;-72
2022/05/10 04:45:03;;;;;;;8.90;8.20;;;15.40;68.30;;;;;;5102170;28;20431;-71
2022/05/10 04:47:30;;;;;;;8.65;7.95;;;15.40;68.30;;;;;;5119152;28;20487;-70
2022/05/10 04:49:56;;;;;;;8.90;8.20;;;15.40;68.10;;;;;;5106071;28;20435;-71
2022/05/10 04:52:23;;;;;;;8.35;7.70;;;15.40;68.00;;;;;;5108024;28;20424;-72
2022/05/10 04:54:49;;;;;;;8.80;8.20;;;15.40;68.30;;;;;;5108421;28;20424;-69
2022/05/10 04:57:16;;;;;;;8.70;8.10;;;15.40;68.60;;;;;;5108101;28;20801;-71
2022/05/10 04:59:43;;;;;;;8.77;7.90;;;15.40;68.20;;;;;;5108876;28;20432;-63
2022/05/10 05:02:11;;;;;;;9.00;8.30;;;15.40;68.10;;;;;;5111482;28;20440;-64
2022/05/10 05:04:37;;;;;;;9.10;8.30;;;15.40;68.50;;;;;;5103737;28;20428;-64
2022/05/10 05:07:04;;;;;;;8.93;8.13;;;15.40;68.40;;;;;;5107155;28;20427;-63
2022/05/10 05:09:31;;;;;;;8.38;7.78;;;15.50;68.40;;;;;;5108483;28;20446;-64
2022/05/10 05:11:58;;;;;;;8.75;7.95;;;15.40;68.50;;;;;;5106133;28;20433;-64
2022/05/10 05:14:25;;;;;;;8.50;7.90;;;15.40;68.80;;;;;;5109748;28;20428;-64
2022/05/10 05:16:54;;;;;;;9.13;8.33;;;15.40;68.60;;;;;;5112898;28;21462;-64
2022/05/10 05:19:22;;;;;;;9.32;8.60;;;15.50;68.50;;;;;;5108830;28;20427;-73
2022/05/10 05:21:48;;;;;;;9.23;8.32;;;15.50;68.70;;;;;;5106379;28;20432;-73
2022/05/10 05:24:15;;;;;;;8.60;8.00;;;15.50;68.90;;;;;;5099285;28;20836;-73
2022/05/10 05:26:41;;;;;;;8.10;7.40;;;15.50;68.50;;;;;;5104219;28;20474;-74
2022/05/10 05:29:08;;;;;;;9.20;8.40;;;15.50;68.60;;;;;;5097188;28;21277;-73
2022/05/10 05:31:35;;;;;;;9.00;8.30;;;15.70;67.50;;;;;;5103398;28;20492;-73
2022/05/10 05:34:02;;;;;;;9.10;8.30;;;15.80;67.50;;;;;;5101631;28;20465;-74
2022/05/10 05:36:30;;;;;;;8.45;7.53;;;15.80;66.90;;;;;;5109717;27;20839;-72
2022/05/10 05:38:56;;;;;;;8.98;8.07;;;15.80;67.00;;;;;;5110635;28;20424;-74
2022/05/10 05:41:23;;;;;;;8.65;7.85;;;15.90;67.00;;;;;;5111125;28;20919;-72
2022/05/10 05:43:50;;;;;;;8.25;7.45;;;16.00;66.00;;;;;;5111573;27;21003;-73
2022/05/10 05:46:16;;;;;;;8.75;7.95;;;16.20;65.20;;;;;;5108795;27;20790;-72
2022/05/10 05:48:43;;;;;;;8.20;7.50;;;16.20;64.90;;;;;;5113171;27;20812;-73
2022/05/10 05:51:10;;;;;;;7.88;7.38;;;16.30;64.80;;;;;;5110854;28;20519;-72
2022/05/10 05:53:38;;;;;;;8.30;7.60;;;16.40;63.90;;;;;;5107199;28;20470;-73
2022/05/10 05:56:08;;;;;;;8.68;7.88;;;16.40;64.30;;;;;;5111042;28;20427;-71
2022/05/10 05:58:35;;;;;;;7.85;7.25;;;16.50;63.00;;;;;;5115863;27;20432;-74
2022/05/10 06:01:02;;;;;;;8.00;7.35;;;16.60;63.50;;;;;;5119269;27;20418;-73
2022/05/10 06:03:29;;;;;;;7.95;7.25;;;16.60;62.40;;;;;;5125670;27;20427;-74
2022/05/10 06:05:55;;;;;;;8.05;7.55;;;16.70;61.90;;;;;;5120431;27;20430;-71
2022/05/10 06:08:22;;;;;;;8.05;7.38;;;16.80;63.10;;;;;;5108465;28;20431;-73
2022/05/10 06:10:52;;;;;;;7.80;7.10;;;16.80;62.00;;;;;;5116159;27;20460;-73
2022/05/10 06:13:21;;;;;;;8.20;7.40;;;16.90;62.20;;;;;;5112051;27;20408;-73
2022/05/10 06:15:49;;;;;;;8.07;7.47;;;17.00;61.70;;;;;;5112537;28;21071;-71
2022/05/10 06:18:16;;;;;;;7.78;7.18;;;17.00;61.50;;;;;;5113048;27;20412;-73
2022/05/10 06:20:42;;;;;;;7.93;7.32;;;17.10;62.10;;;;;;5109888;28;20793;-73
2022/05/10 06:23:10;;;;;;;8.10;7.50;;;17.20;60.90;;;;;;5108999;28;20484;-71
2022/05/10 06:25:37;;;;;;;7.93;7.22;;;17.20;60.70;;;;;;5112072;28;20420;-72
2022/05/10 06:28:05;;;;;;;7.75;7.15;;;17.30;61.10;;;;;;5107187;28;20430;-72
2022/05/10 06:30:33;;;;;;;7.90;7.20;;;17.40;61.30;;;;;;5109746;28;20423;-73
2022/05/10 06:33:00;;;;;;;7.28;6.75;;;17.40;60.40;;;;;;5112146;27;20478;-73
2022/05/10 06:35:28;;;;;;;8.27;7.47;;;17.50;60.30;;;;;;5112390;28;20485;-73
2022/05/10 06:40:39;;;;;;;7.30;6.80;;;17.50;60.00;;;;;;5116429;28;20431;-73
2022/05/10 06:43:07;;;;;;;8.00;7.40;;;17.60;59.80;;;;;;5113477;27;20471;-73
2022/05/10 06:45:35;;;;;;;10.82;7.20;;;17.60;59.40;;;;;;5109425;28;20401;-73
2022/05/10 06:48:01;;;;;;;8.18;7.38;;;17.70;59.30;;;;;;5103395;28;20936;-75
2022/05/10 06:50:30;;;;;;;7.30;6.80;;;17.70;59.50;;;;;;5112990;28;20473;-74
2022/05/10 06:52:58;;;;;;;8.30;7.60;;;17.80;59.50;;;;;;5102943;27;20949;-74
2022/05/10 06:55:25;;;;;;;8.13;7.40;;;17.90;59.40;;;;;;5113323;27;20436;-74
2022/05/10 06:57:52;;;;;;;10.50;7.10;;;18.00;59.20;;;;;;5114226;27;20973;-73
2022/05/10 07:00:21;;;;;;;7.70;7.03;;;18.10;58.70;;;;;;5124028;27;20426;-74
2022/05/10 07:02:49;;;;;;;7.70;7.10;;;18.20;58.80;;;;;;5117432;27;20430;-74
2022/05/10 07:05:17;;;;;;;8.30;7.60;;;18.20;58.20;;;;;;5108632;28;20885;-75
2022/05/10 07:07:44;;;;;;;7.60;6.80;;;18.20;58.50;;;;;;5116789;27;20467;-74
2022/05/10 07:10:12;;;;;;;7.22;6.63;;;18.30;58.80;;;;;;5120456;27;20428;-73
2022/05/10 07:12:40;;;;;;;7.80;7.10;;;18.30;58.70;;;;;;5132566;28;20401;-75
2022/05/10 07:15:09;;;;;;;8.00;7.30;;;18.40;58.20;;;;;;5120679;28;20432;-74
2022/05/10 07:17:38;;;;;;;7.30;6.70;;;18.40;59.10;;;;;;5130351;28;20679;-74
2022/05/10 07:20:06;;;;;;;7.30;6.70;;;18.50;58.70;;;;;;5114121;27;20959;-75
2022/05/10 07:22:33;;;;;;;7.50;6.80;;;18.60;57.80;;;;;;5112396;28;20416;-74
2022/05/10 07:24:59;;;;;;;8.00;7.40;;;18.70;57.60;;;;;;5111007;28;20432;-73
2022/05/10 07:27:26;;;;;;;8.07;6.70;;;18.80;57.60;;;;;;5113462;28;20408;-73
2022/05/10 07:29:54;;;;;;;12.68;7.50;;;18.90;57.00;;;;;;5101018;28;20436;-71
2022/05/10 07:32:21;;;;;;;7.50;6.90;;;19.10;56.80;;;;;;5109186;28;20462;-71
2022/05/10 07:34:49;;;;;;;8.45;7.30;;;19.20;56.40;;;;;;5108444;28;21158;-72
2022/05/10 07:37:16;;;;;;;6.78;6.28;;;19.50;54.90;;;;;;5099871;28;20495;-73
2022/05/10 07:39:43;;;;;;;7.40;6.80;;;19.70;55.00;;;;;;5107820;28;20432;-71
2022/05/10 07:42:10;;;;;;;6.80;6.20;;;20.00;54.20;;;;;;5111744;28;20457;-72
2022/05/10 07:44:36;;;;;;;7.35;6.65;;;20.20;54.30;;;;;;5109597;27;20428;-71
2022/05/10 07:47:03;;;;;;;6.93;6.43;;;20.60;53.50;;;;;;5105524;28;20428;-71
2022/05/10 07:49:30;;;;;;;6.60;6.10;;;20.80;51.70;;;;;;5111365;27;20515;-72
2022/05/10 07:51:58;;;;;;;7.50;6.90;;;21.10;51.00;;;;;;5110124;27;20443;-72
2022/05/10 07:54:25;;;;;;;7.60;6.90;;;21.10;51.10;;;;;;5117065;27;20430;-71
2022/05/10 07:56:52;;;;;;;7.13;6.53;;;21.10;50.90;;;;;;5109847;27;20442;-72
2022/05/10 07:59:18;;;;;;;7.45;6.65;;;21.20;50.40;;;;;;5108643;27;20432;-71
2022/05/10 08:01:45;;;;;;;7.88;6.90;;;21.40;50.30;;;;;;5107588;27;20484;-72
2022/05/10 08:04:12;;;;;;;6.75;6.10;;;21.50;49.80;;;;;;5107772;27;20431;-74
2022/05/10 08:06:38;;;;;;;6.70;6.10;;;21.70;49.70;;;;;;5113142;27;20425;-71
2022/05/10 08:09:06;;;;;;;7.40;6.80;;;22.10;49.10;;;;;;5109459;27;20428;-71
2022/05/10 08:11:33;;;;;;;6.60;6.10;;;22.30;47.50;;;;;;5109324;28;20412;-73
2022/05/10 08:14:00;;;;;;;6.60;6.10;;;22.40;48.00;;;;;;5123935;27;20420;-73
2022/05/10 08:16:31;;;;;;;6.80;6.20;;;22.60;47.50;;;;;;5109624;28;20420;-71
2022/05/10 08:18:57;;;;;;;6.40;5.80;;;22.70;47.10;;;;;;5106256;28;20521;-72
2022/05/10 08:21:24;;;;;;;6.70;6.10;;;22.70;47.40;;;;;;5106373;27;20485;-73
2022/05/10 08:23:53;;;;;;;6.75;6.00;;;22.70;47.30;;;;;;5110184;28;20416;-71
2022/05/10 08:26:21;;;;;;;6.47;5.97;;;22.70;47.20;;;;;;5105076;28;20477;-72
2022/05/10 08:28:47;;;;;;;6.35;5.85;;;22.80;47.40;;;;;;5111464;28;20408;-73
2022/05/10 08:31:15;;;;;;;6.00;5.50;;;22.90;47.30;;;;;;5121462;28;20402;-73
2022/05/10 08:33:43;;;;;;;10.63;9.73;;;23.00;47.10;;;;;;5139778;27;20414;-73
2022/05/10 08:36:11;;;;;;;6.60;5.90;;;23.20;47.20;;;;;;5147474;27;20415;-72
2022/05/10 08:38:38;;;;;;;9.68;6.72;;;23.30;46.40;;;;;;5118994;27;20491;-72
2022/05/10 08:41:10;;;;;;;7.22;5.38;;;23.60;46.50;;;;;;5114289;28;20435;-73
2022/05/10 08:43:42;;;;;;;6.88;5.70;;;24.00;45.60;;;;;;5102867;28;20506;-71
2022/05/10 08:46:11;;;;;;;6.40;5.80;;;24.30;42.80;;;;;;5113887;27;21125;-73
2022/05/10 08:48:37;;;;;;;8.30;5.60;;;24.40;43.40;;;;;;5119424;28;20439;-73
2022/05/10 08:51:08;;;;;;;8.02;6.20;;;24.60;42.50;;;;;;5120333;28;20424;-73
2022/05/10 08:53:34;;;;;;;6.05;5.55;;;24.70;43.00;;;;;;5115649;28;20424;-71
2022/05/10 08:56:06;;;;;;;7.03;5.50;;;24.80;41.90;;;;;;5123178;28;20432;-73
2022/05/10 08:58:44;;;;;;;5.43;5.00;;;25.00;42.10;;;;;;5119688;28;20428;-72
2022/05/10 09:01:16;;;;;;;5.55;4.55;;;25.20;41.70;;;;;;5112830;28;20437;-71
2022/05/10 09:03:46;;;;;;;6.10;4.90;;;25.60;39.70;;;;;;5111160;28;20759;-73
2022/05/10 09:06:21;;;;;;;5.00;4.60;;;25.90;40.00;;;;;;5119284;28;20453;-73
2022/05/10 09:08:59;;;;;;;4.78;4.38;;;26.30;38.60;;;;;;5108948;28;20428;-72
2022/05/10 09:11:29;;;;;;;4.72;4.32;;;26.60;36.90;;;;;;5115590;28;20480;-72
2022/05/10 09:13:57;;;;;;;5.72;4.32;;;26.90;35.80;;;;;;5114421;28;20801;-72
2022/05/10 09:16:24;;;;;;;4.47;3.90;;;27.00;35.60;;;;;;5115226;28;20420;-73
2022/05/10 09:18:53;;;;;;;4.03;3.63;;;27.00;35.60;;;;;;5113939;28;20843;-73
2022/05/10 09:21:23;;;;;;;4.07;3.67;;;27.00;36.60;;;;;;5106702;28;20451;-69
2022/05/10 09:24:06;;;;;;;3.88;3.58;;;27.40;35.30;;;;;;5112299;28;20465;-69
2022/05/10 09:26:36;;;;;;;4.50;3.10;;;27.70;33.80;;;;;;5114860;27;20552;-73
2022/05/10 09:29:10;;;;;;;4.63;3.40;;;27.60;31.60;;;;;;5113105;28;20424;-72
2022/05/10 09:34:46;;;;;;;3.83;3.30;;;26.70;32.10;;;;;;5064698;28;20395;-73
2022/05/10 09:37:21;;;;;;;3.85;3.40;;;26.70;31.60;;;;;;5108405;28;20432;-72
2022/05/10 09:40:00;;;;;;;4.30;3.00;;;26.60;32.00;;;;;;5118181;27;20434;-72
2022/05/10 09:42:29;;;;;;;3.50;3.20;;;26.90;31.20;;;;;;5117592;27;20511;-73
2022/05/10 09:45:03;;;;;;;3.90;3.17;;;27.00;31.10;;;;;;5110180;28;20427;-72
2022/05/10 09:47:30;;;;;;;3.35;3.05;;;27.00;30.70;;;;;;5114276;28;20438;-72
2022/05/10 09:50:16;;;;;;;3.00;2.80;;;27.10;30.40;;;;;;5111851;28;20492;-72
2022/05/10 09:52:43;;;;;;;4.00;3.70;;;27.30;30.20;;;;;;5112029;28;20434;-73
2022/05/10 09:55:16;;;;;;;3.05;2.75;;;27.60;30.00;;;;;;5113745;28;20477;-72
2022/05/10 09:57:43;;;;;;;3.50;2.57;;;27.80;29.90;;;;;;5113092;28;20435;-73
2022/05/10 10:00:14;;;;;;;2.63;2.42;;;28.00;29.00;;;;;;5115179;28;20424;-72
2022/05/10 10:02:42;;;;;;;2.90;2.70;;;28.20;28.90;;;;;;5130803;27;20449;-71
2022/05/10 10:05:23;;;;;;;2.80;2.60;;;28.50;28.40;;;;;;5133868;28;20491;-73
2022/05/10 10:07:51;;;;;;;4.10;2.67;;;28.30;28.50;;;;;;5135747;28;20424;-73
2022/05/10 10:10:24;;;;;;;2.90;2.53;;;27.60;28.20;;;;;;5136760;27;20436;-76
2022/05/10 10:12:50;;;;;;;2.80;2.60;;;27.40;28.60;;;;;;5142673;27;20481;-73
2022/05/10 10:15:25;;;;;;;2.50;2.30;;;27.60;28.40;;;;;;5136253;27;20910;-72
2022/05/10 10:17:54;;;;;;;2.70;2.50;;;27.80;26.80;;;;;;5143989;27;20416;-72
2022/05/10 10:20:34;;;;;;;2.40;2.10;;;27.70;27.70;;;;;;5121582;28;21128;-72
2022/05/10 10:23:04;;;;;;;2.42;2.22;;;27.20;26.50;;;;;;5113243;28;20763;-72
2022/05/10 10:25:40;;;;;;;2.55;2.35;;;26.90;27.40;;;;;;5124608;28;20428;-72
2022/05/10 10:28:15;;;;;;;2.72;2.50;;;26.60;28.30;;;;;;5126222;28;20481;-72
2022/05/10 10:30:50;;;;;;;3.40;2.50;;;26.40;29.00;;;;;;5120202;28;20504;-72
2022/05/10 10:33:26;;;;;;;3.00;2.20;;;27.00;27.40;;;;;;5126575;27;20491;-71
2022/05/10 10:35:58;;;;;;;2.20;2.00;;;27.40;27.70;;;;;;5113243;28;20804;-72
2022/05/10 10:38:30;;;;;;;2.00;1.90;;;28.00;27.10;;;;;;5123615;27;20423;-72
2022/05/10 10:41:02;;;;;;;2.60;2.40;;;28.10;26.50;;;;;;5111548;27;20428;-72
2022/05/10 10:43:32;;;;;;;3.85;2.20;;;28.10;26.00;;;;;;5134584;22;20461;-67
2022/05/10 10:46:08;;;;;;;2.13;1.92;;;28.60;26.40;;;;;;5115504;27;20500;-67
2022/05/10 10:48:44;;;;;;;2.47;2.28;;;28.50;25.80;;;;;;5126678;27;20769;-67
2022/05/10 10:51:12;;;;;;;3.20;2.20;;;28.30;26.30;;;;;;5128575;27;20534;-67
2022/05/10 10:53:40;;;;;;;2.40;2.20;;;28.40;26.20;;;;;;5123374;27;20957;-69
2022/05/10 10:56:31;;;;;;;2.20;2.00;;;28.40;25.70;;;;;;5110387;27;20925;-69
2022/05/10 10:59:20;;;;;;;3.10;2.45;;;28.30;26.20;;;;;;5088728;27;20944;-68
2022/05/10 11:02:03;;;;;;;2.80;2.50;;;27.60;27.00;;;;;;5113358;27;20495;-68
2022/05/10 11:04:55;;;;;;;2.60;2.40;;;27.40;27.90;;;;;;5101164;27;20428;-68
2022/05/10 11:07:29;;;;;;;2.70;2.40;;;27.50;27.40;;;;;;5086713;28;20951;-68
2022/05/10 11:10:03;;;;;;;2.53;2.20;;;27.40;27.10;;;;;;5119154;27;20491;-68
2022/05/10 11:12:42;;;;;;;3.33;3.03;;;27.10;27.80;;;;;;5112650;27;20428;-68
2022/05/10 11:15:24;;;;;;;2.90;2.60;;;27.10;28.10;;;;;;5114486;27;20796;-68
2022/05/10 11:18:07;;;;;;;3.08;2.78;;;27.10;27.10;;;;;;5112836;27;20481;-68
2022/05/10 11:20:44;;;;;;;3.00;2.70;;;26.80;27.60;;;;;;5109114;27;20526;-68
2022/05/10 11:23:24;;;;;;;2.70;2.50;;;26.20;27.80;;;;;;5105939;27;20899;-67
2022/05/10 11:26:06;;;;;;;2.72;2.53;;;25.90;28.30;;;;;;5105208;27;20442;-67
2022/05/10 11:28:54;;;;;;;3.03;2.50;;;25.90;29.30;;;;;;5102703;27;20435;-70
2022/05/10 11:31:32;;;;;;;3.10;2.80;;;26.10;29.00;;;;;;5111381;27;20439;-71
2022/05/10 11:34:11;;;;;;;3.35;2.60;;;26.00;28.70;;;;;;5104392;28;20421;-72
2022/05/10 11:36:41;;;;;;;3.05;2.72;;;26.00;29.10;;;;;;5104296;28;20948;-68
2022/05/10 11:39:39;;;;;;;2.80;2.60;;;26.20;29.20;;;;;;5099653;27;20445;-69
2022/05/10 11:42:22;;;;;;;3.10;2.90;;;26.40;28.60;;;;;;5096206;27;20512;-69
2022/05/10 11:45:18;;;;;;;2.60;2.40;;;26.40;28.70;;;;;;5097063;28;20428;-67
2022/05/10 11:48:04;;;;;;;3.13;2.92;;;26.20;29.40;;;;;;5099778;28;20499;-68
2022/05/10 11:53:54;;;;;;;4.75;2.90;;;26.60;30.50;;;;;;5102892;27;20529;-68
2022/05/10 11:56:21;;;;;;;4.20;2.90;;;26.80;29.30;;;;;;5102128;28;20502;-67
2022/05/10 11:58:49;;;;;;;3.60;2.88;;;26.90;29.50;;;;;;5095358;27;20601;-65
2022/05/10 12:01:45;;;;;;;3.10;2.90;;;26.80;29.30;;;;;;5104284;27;20474;-66
2022/05/10 12:04:35;;;;;;;2.90;2.70;;;26.80;30.60;;;;;;5098641;28;21003;-64
2022/05/10 12:07:29;;;;;;;3.67;2.95;;;26.90;29.70;;;;;;5100558;27;20562;-67
2022/05/10 12:09:59;;;;;;;2.90;2.67;;;27.10;30.60;;;;;;5098174;28;20489;-66
2022/05/10 12:13:00;;;;;;;3.40;2.90;;;27.50;30.00;;;;;;5098214;28;20424;-72
2022/05/10 12:21:50;;;;;;;3.10;2.90;;;28.00;28.80;;;;;;5101429;28;20415;-70
2022/05/10 12:24:30;;;;;;;2.80;2.60;;;28.00;28.00;;;;;;5095916;28;20441;-69
2022/05/10 12:26:59;;;;;;;3.67;2.75;;;28.20;29.00;;;;;;5100452;28;20424;-70
2022/05/10 12:30:11;;;;;;;3.45;2.90;;;28.00;27.60;;;;;;5096337;28;20535;-69
2022/05/10 12:32:43;;;;;;;3.30;2.80;;;27.50;28.60;;;;;;5095626;28;20428;-69
2022/05/10 12:35:11;;;;;;;3.60;2.90;;;27.40;29.30;;;;;;5103583;27;20490;-70
2022/05/10 12:37:59;;;;;;;2.80;2.60;;;27.70;29.40;;;;;;5098022;28;20465;-70
2022/05/10 12:40:51;;;;;;;2.40;2.20;;;27.90;28.80;;;;;;5097676;28;20427;-70
2022/05/10 12:43:50;;;;;;;3.40;2.75;;;27.90;28.10;;;;;;5103770;28;20432;-69
2022/05/10 12:46:32;;;;;;;3.90;2.70;;;27.80;28.00;;;;;;5093670;28;20447;-70
2022/05/10 12:49:23;;;;;;;2.92;2.60;;;27.50;28.00;;;;;;5099179;28;20489;-70
2022/05/10 12:52:01;;;;;;;3.28;2.60;;;27.50;28.10;;;;;;5100915;28;20431;-69
2022/05/10 12:54:37;;;;;;;2.85;2.65;;;27.80;27.90;;;;;;5098014;28;20856;-68
2022/05/10 12:57:10;;;;;;;3.00;2.70;;;27.60;28.10;;;;;;5097955;28;20438;-69
2022/05/10 12:59:48;;;;;;;2.70;2.50;;;27.60;27.70;;;;;;5100285;28;20428;-70
2022/05/10 13:02:15;;;;;;;2.70;2.50;;;27.50;27.70;;;;;;5097913;28;20470;-70
2022/05/10 13:04:49;;;;;;;2.88;2.60;;;27.90;27.90;;;;;;5104178;28;20456;-69
2022/05/10 13:07:28;;;;;;;2.85;2.60;;;28.20;28.10;;;;;;5102761;28;20526;-70
2022/05/10 13:09:57;;;;;;;2.38;2.20;;;28.60;27.90;;;;;;5093501;28;20459;-70
2022/05/10 13:12:28;;;;;;;3.38;2.70;;;28.80;26.90;;;;;;5092646;28;20450;-71
2022/05/10 13:14:58;;;;;;;3.50;2.50;;;28.30;27.90;;;;;;5094302;28;20870;-69
2022/05/10 13:17:28;;;;;;;4.03;3.07;;;28.20;27.80;;;;;;5093998;28;20527;-69
2022/05/10 13:19:55;;;;;;;2.90;2.70;;;28.20;27.50;;;;;;5096945;28;20427;-69
2022/05/10 13:22:22;;;;;;;3.45;3.00;;;28.00;28.20;;;;;;5103510;28;20415;-69
2022/05/10 13:24:51;;;;;;;3.40;2.60;;;28.00;28.10;;;;;;5101001;28;20509;-69
2022/05/10 13:27:27;;;;;;;2.90;2.70;;;28.40;28.40;;;;;;5103731;28;20412;-70